createdAt,value
2023-04-02T00:04:01.167Z,20.3
2023-04-02T00:09:22.873Z,20.4
2023-04-02T00:15:13.655Z,20.3
2023-04-02T00:21:04.578Z,20.3
2023-04-02T00:26:58.884Z,20.3
2023-04-02T00:32:50.778Z,20.4
2023-04-02T00:38:42.824Z,20.3
2023-04-02T00:44:34.208Z,20.4
2023-04-02T00:50:26.365Z,20.4
2023-04-02T00:56:17.798Z,20.4
2023-04-02T01:01:54.437Z,20.4
2023-04-02T01:07:48.537Z,20.3
2023-04-02T01:13:40.735Z,20.4
2023-04-02T01:19:33.138Z,20.4
2023-04-02T01:25:25.393Z,20.4
2023-04-02T01:31:16.706Z,20.4
2023-04-02T01:37:08.332Z,20.4
2023-04-02T01:43:00.184Z,20.3
2023-04-02T01:48:51.310Z,20.4
2023-04-02T01:54:42.821Z,20.4
2023-04-02T02:00:19.312Z,20.4
2023-04-02T02:06:11.964Z,20.4
2023-04-02T02:12:03.249Z,20.4
2023-04-02T02:17:55.917Z,20.4
2023-04-02T02:23:47.241Z,20.4
2023-04-02T02:29:38.692Z,20.4
2023-04-02T02:35:30.689Z,20.4
2023-04-02T02:41:23.176Z,20.4
2023-04-02T02:47:15.171Z,20.4
2023-04-02T02:53:09.399Z,20.4
2023-04-02T02:59:00.844Z,20.4
2023-04-02T03:04:53.789Z,20.4
2023-04-02T03:10:45.484Z,20.4
2023-04-02T03:16:36.516Z,20.4
2023-04-02T03:22:12.261Z,20.4
2023-04-02T03:27:50.067Z,20.4
2023-04-02T03:33:42.544Z,20.4
2023-04-02T03:39:19.062Z,20.4
2023-04-02T03:45:09.960Z,20.4
2023-04-02T03:51:02.005Z,20.4
2023-04-02T03:57:06.042Z,20.4
2023-04-02T04:02:41.852Z,20.4
2023-04-02T04:08:33.684Z,20.4
2023-04-02T04:14:24.246Z,20.4
2023-04-02T04:20:17.593Z,20.4
2023-04-02T04:26:09.039Z,20.4
2023-04-02T04:32:01.310Z,20.4
2023-04-02T04:37:53.295Z,21.8
2023-04-02T04:43:45.094Z,23.5
2023-04-02T04:49:36.987Z,25.1
2023-04-02T04:55:29.385Z,26.2
2023-04-02T05:01:39.528Z,27.1
2023-04-02T05:07:31.376Z,28
2023-04-02T05:13:22.389Z,28.8
2023-04-02T05:19:14.106Z,29.7
2023-04-02T05:24:53.186Z,30.5
2023-04-02T05:30:43.654Z,31.3
2023-04-02T05:36:35.340Z,32.1
2023-04-02T05:42:26.617Z,32.8
2023-04-02T05:48:18.573Z,33.6
2023-04-02T05:54:10.366Z,34.4
2023-04-02T06:00:34.336Z,35.3
2023-04-02T06:06:26.500Z,36
2023-04-02T06:12:19.338Z,36.8
2023-04-02T06:18:10.714Z,37.5
2023-04-02T06:23:46.334Z,38.3
2023-04-02T06:29:37.633Z,39
2023-04-02T06:35:13.932Z,49.6
2023-04-02T06:40:49.159Z,42.4
2023-04-02T06:46:26.035Z,46.2
2023-04-02T06:52:03.148Z,47.4
2023-04-02T06:57:39.376Z,48.4
2023-04-02T07:03:16.644Z,49.5
2023-04-02T07:08:53.548Z,50.3
2023-04-02T07:14:14.430Z,48.1
2023-04-02T07:19:51.817Z,49
2023-04-02T07:25:30.221Z,49.9
2023-04-02T07:31:06.056Z,50.9
2023-04-02T07:36:42.606Z,51.7
2023-04-02T07:42:34.497Z,51.2
2023-04-02T07:48:14.271Z,52.3
2023-04-02T07:53:50.636Z,53.2
2023-04-02T07:59:42.911Z,54
2023-04-02T08:05:20.250Z,54.8
2023-04-02T08:11:12.312Z,55.3
2023-04-02T08:17:06.885Z,56.1
2023-04-02T08:22:55.479Z,56.7
2023-04-02T08:28:47.610Z,57.1
2023-04-02T08:34:39.417Z,57.6
2023-04-02T08:40:30.947Z,58
2023-04-02T08:46:15.844Z,58.3
2023-04-02T08:52:07.676Z,59.1
2023-04-02T09:08:45.618Z,58.7
2023-04-02T09:14:37.370Z,58.6
2023-04-02T09:20:43.243Z,58.4
2023-04-02T09:32:22.928Z,57.6
2023-04-02T09:38:28.438Z,59.2
2023-04-02T09:44:17.701Z,60.1
2023-04-02T09:50:10.920Z,59.1
2023-04-02T09:56:02.404Z,58.1
2023-04-02T10:01:54.017Z,57.9
2023-04-02T10:07:34.083Z,59.6
2023-04-02T10:13:38.225Z,58.6
2023-04-02T10:19:33.251Z,59
2023-04-02T10:25:36.900Z,60.6
2023-04-02T10:31:29.331Z,60.9
2023-04-02T10:37:21.122Z,61
2023-04-02T10:43:12.433Z,60.1
2023-04-02T10:49:16.143Z,59.6
2023-04-02T10:55:09.155Z,59.9
2023-04-02T11:00:57.934Z,61.5
2023-04-02T11:07:00.815Z,61.3
2023-04-02T11:12:43.343Z,62.1
2023-04-02T11:18:38.917Z,62.4
2023-04-02T11:24:44.986Z,61
2023-04-02T11:30:22.062Z,61.4
2023-04-02T11:36:38.122Z,61.6
2023-04-02T11:42:25.021Z,61.8
2023-04-02T11:48:22.635Z,61.6
2023-04-02T11:54:24.553Z,60.8
2023-04-02T12:00:17.540Z,61.1
2023-04-02T12:06:11.086Z,61.3
2023-04-02T12:12:13.348Z,60.9
2023-04-02T12:17:49.841Z,61.9
2023-04-02T12:23:42.931Z,60.9
2023-04-02T12:29:34.115Z,60.5
2023-04-02T12:35:25.972Z,61.9
2023-04-02T12:41:16.896Z,61.5
2023-04-02T12:47:08.813Z,60.8
2023-04-02T12:53:00.113Z,61.9
2023-04-02T12:58:52.676Z,62.3
2023-04-02T13:04:44.202Z,62.6
2023-04-02T13:10:35.509Z,62.9
2023-04-02T13:16:26.792Z,63.1
2023-04-02T13:22:18.048Z,62.9
2023-04-02T13:28:09.256Z,62.9
2023-04-02T13:33:45.692Z,62.7
2023-04-02T13:39:22.859Z,62.6
2023-04-02T13:45:14.497Z,62.4
2023-04-02T13:51:06.168Z,61.5
2023-04-02T14:02:18.920Z,58.7
2023-04-02T14:07:58.397Z,57.9
2023-04-02T14:13:50.205Z,57.2
2023-04-02T14:19:42.462Z,56.1
2023-04-02T14:25:35.812Z,49.9
2023-04-02T14:30:57.215Z,49.1
2023-04-02T14:36:34.314Z,49.8
2023-04-02T14:42:26.549Z,49.2
2023-04-02T14:48:18.471Z,48.8
2023-04-02T14:54:09.932Z,48.6
2023-04-02T15:00:01.955Z,51.2
2023-04-02T15:05:54.593Z,45.4
2023-04-02T15:11:58.965Z,42.3
2023-04-02T15:18:03.045Z,48.4
2023-04-02T15:23:53.724Z,43.8
2023-04-02T15:29:45.670Z,41.5
2023-04-02T15:35:38.966Z,39.8
2023-04-02T15:41:31.289Z,38.6
2023-04-02T15:47:23.836Z,37.7
2023-04-02T15:53:00.194Z,37
2023-04-02T15:58:54.831Z,36.4
2023-04-02T16:04:49.801Z,35.9
2023-04-02T16:10:34.168Z,33.1
2023-04-02T16:16:14.506Z,28.2
2023-04-02T16:22:23.056Z,24.4
2023-04-02T16:28:30.971Z,24.1
2023-04-02T16:34:41.460Z,22.1
2023-04-02T16:41:13.457Z,21.1
2023-04-02T16:47:13.496Z,20.4
2023-04-02T16:53:04.633Z,20
2023-04-02T16:58:50.253Z,19.7
2023-04-02T17:04:27.818Z,19.4
2023-04-02T17:10:19.203Z,19.3
2023-04-02T17:16:17.764Z,19.1
2023-04-02T17:22:09.562Z,19
2023-04-02T17:28:09.607Z,18.9
2023-04-02T17:34:02.242Z,18.8
2023-04-02T17:39:53.701Z,18.8
2023-04-02T17:50:51.672Z,18.6
2023-04-02T17:56:45.390Z,18.6
2023-04-02T18:02:36.552Z,18.6
2023-04-02T18:08:32.190Z,18.5
2023-04-02T18:14:23.903Z,18.5
2023-04-02T18:20:17.878Z,18.5
2023-04-02T18:26:09.587Z,18.4
2023-04-02T18:31:46.806Z,18.4
2023-04-02T18:37:38.137Z,18.4
2023-04-02T18:43:29.583Z,18.4
2023-04-02T18:49:21.227Z,18.4
2023-04-02T18:55:11.966Z,18.4
2023-04-02T19:01:03.419Z,18.4
2023-04-02T19:06:58.582Z,18.4
2023-04-02T19:12:34.303Z,18.3
2023-04-02T19:18:25.997Z,18.1
2023-04-02T19:24:18.299Z,17.9
2023-04-02T19:30:12.229Z,17.8
2023-04-02T19:36:04.043Z,17.7
2023-04-02T19:41:39.474Z,17.6
2023-04-02T19:47:30.848Z,17.6
2023-04-02T19:53:07.333Z,17.6
2023-04-02T19:58:52.886Z,17.5
2023-04-02T20:04:53.642Z,17.5
2023-04-02T20:10:29.702Z,17.6
2023-04-02T20:16:21.930Z,17.6
2023-04-02T20:22:13.909Z,17.8
2023-04-02T20:27:50.022Z,17.8
2023-04-02T20:32:55.631Z,17.8
2023-04-02T20:38:33.189Z,17.8
2023-04-02T20:44:09.529Z,17.8
2023-04-02T20:49:46.535Z,17.8
2023-04-02T20:55:38.007Z,17.8
2023-04-02T21:01:13.682Z,17.8
2023-04-02T21:06:50.254Z,17.8
2023-04-02T21:12:41.778Z,17.8
2023-04-02T21:18:33.620Z,17.8
2023-04-02T21:24:26.381Z,17.8
2023-04-02T21:30:02.363Z,17.8
2023-04-02T21:35:45.798Z,17.8
2023-04-02T21:41:39.494Z,17.7
2023-04-02T21:47:31.820Z,17.8
2023-04-02T21:53:24.208Z,17.8
2023-04-02T21:59:01.005Z,17.7
2023-04-02T22:05:10.735Z,17.7
2023-04-02T22:11:02.072Z,17.7
2023-04-02T22:16:55.039Z,17.7
2023-04-02T22:22:46.073Z,17.7
2023-04-02T22:28:23.167Z,17.7
2023-04-02T22:33:59.799Z,17.7
2023-04-02T22:39:20.103Z,17.7
2023-04-02T22:45:11.475Z,17.7
2023-04-02T22:51:02.692Z,17.7
2023-04-02T22:56:54.419Z,17.7
2023-04-02T23:02:16.347Z,17.7
2023-04-02T23:07:52.886Z,17.7
2023-04-02T23:13:14.075Z,17.7
2023-04-02T23:18:34.977Z,17.7
2023-04-02T23:23:54.708Z,17.7
2023-04-02T23:29:30.902Z,17.7
2023-04-02T23:34:52.057Z,17.7
2023-04-02T23:40:43.831Z,17.7
2023-04-02T23:46:35.710Z,17.7
2023-04-02T23:52:27.275Z,17.7
2023-04-02T23:58:18.657Z,17.7
